sensor_id;sensor_type;location;lat;lon;timestamp;temperature;humidity
12847;DHT22;6492;48.128;8.320;2022-12-11T00:01:26;-6.10;57.20
12847;DHT22;6492;48.128;8.320;2022-12-11T00:05:29;-6.10;57.00
12847;DHT22;6492;48.128;8.320;2022-12-11T00:09:31;-6.00;56.70
12847;DHT22;6492;48.128;8.320;2022-12-11T00:14:07;-6.00;56.50
12847;DHT22;6492;48.128;8.320;2022-12-11T00:18:11;-6.10;55.60
12847;DHT22;6492;48.128;8.320;2022-12-11T00:22:14;-6.10;55.30
12847;DHT22;6492;48.128;8.320;2022-12-11T00:26:16;-6.10;55.40
12847;DHT22;6492;48.128;8.320;2022-12-11T00:30:18;-6.20;55.20
12847;DHT22;6492;48.128;8.320;2022-12-11T00:34:20;-6.30;54.70
12847;DHT22;6492;48.128;8.320;2022-12-11T00:38:23;-6.40;53.80
12847;DHT22;6492;48.128;8.320;2022-12-11T00:42:25;-6.60;53.50
12847;DHT22;6492;48.128;8.320;2022-12-11T00:46:27;-6.70;53.50
12847;DHT22;6492;48.128;8.320;2022-12-11T00:50:28;-6.90;53.60
12847;DHT22;6492;48.128;8.320;2022-12-11T00:54:33;-7.00;54.10
12847;DHT22;6492;48.128;8.320;2022-12-11T00:58:34;-7.00;54.70
12847;DHT22;6492;48.128;8.320;2022-12-11T01:02:36;-7.10;55.60
12847;DHT22;6492;48.128;8.320;2022-12-11T01:06:38;-7.00;56.80
12847;DHT22;6492;48.128;8.320;2022-12-11T01:10:41;-6.90;57.60
12847;DHT22;6492;48.128;8.320;2022-12-11T01:14:43;-6.80;59.20
12847;DHT22;6492;48.128;8.320;2022-12-11T01:18:45;-6.60;60.60
12847;DHT22;6492;48.128;8.320;2022-12-11T01:22:47;-6.40;61.10
12847;DHT22;6492;48.128;8.320;2022-12-11T01:26:53;-6.30;61.30
12847;DHT22;6492;48.128;8.320;2022-12-11T01:30:55;-6.20;61.30
12847;DHT22;6492;48.128;8.320;2022-12-11T01:34:57;-6.10;61.20
12847;DHT22;6492;48.128;8.320;2022-12-11T01:38:59;-6.10;60.60
12847;DHT22;6492;48.128;8.320;2022-12-11T01:43:02;-6.00;60.30
12847;DHT22;6492;48.128;8.320;2022-12-11T01:47:03;-6.00;59.70
12847;DHT22;6492;48.128;8.320;2022-12-11T01:51:05;-5.90;59.10
12847;DHT22;6492;48.128;8.320;2022-12-11T01:55:41;-5.90;58.40
12847;DHT22;6492;48.128;8.320;2022-12-11T01:59:45;-5.90;58.00
12847;DHT22;6492;48.128;8.320;2022-12-11T02:03:47;-5.90;56.90
12847;DHT22;6492;48.128;8.320;2022-12-11T02:07:52;-5.90;54.50
12847;DHT22;6492;48.128;8.320;2022-12-11T02:12:01;-5.90;53.70
12847;DHT22;6492;48.128;8.320;2022-12-11T02:16:12;-5.90;52.90
12847;DHT22;6492;48.128;8.320;2022-12-11T02:20:19;-6.00;52.50
12847;DHT22;6492;48.128;8.320;2022-12-11T02:24:37;-5.90;52.50
12847;DHT22;6492;48.128;8.320;2022-12-11T02:28:45;-5.90;52.50
12847;DHT22;6492;48.128;8.320;2022-12-11T02:32:52;-5.90;52.60
12847;DHT22;6492;48.128;8.320;2022-12-11T02:36:59;-5.90;52.70
12847;DHT22;6492;48.128;8.320;2022-12-11T02:41:04;-5.90;52.70
12847;DHT22;6492;48.128;8.320;2022-12-11T02:45:10;-5.90;52.90
12847;DHT22;6492;48.128;8.320;2022-12-11T02:49:14;-5.90;52.90
12847;DHT22;6492;48.128;8.320;2022-12-11T02:53:19;-5.90;52.50
12847;DHT22;6492;48.128;8.320;2022-12-11T02:57:26;-5.90;52.40
12847;DHT22;6492;48.128;8.320;2022-12-11T03:01:30;-5.90;52.40
12847;DHT22;6492;48.128;8.320;2022-12-11T03:05:33;-5.90;52.60
12847;DHT22;6492;48.128;8.320;2022-12-11T03:09:35;-5.90;52.70
12847;DHT22;6492;48.128;8.320;2022-12-11T03:13:38;-5.90;52.70
12847;DHT22;6492;48.128;8.320;2022-12-11T03:17:47;-5.90;52.30
12847;DHT22;6492;48.128;8.320;2022-12-11T03:21:54;-6.00;51.70
12847;DHT22;6492;48.128;8.320;2022-12-11T03:26:03;-6.00;51.70
12847;DHT22;6492;48.128;8.320;2022-12-11T03:30:10;-6.00;51.10
12847;DHT22;6492;48.128;8.320;2022-12-11T03:34:18;-6.10;50.30
12847;DHT22;6492;48.128;8.320;2022-12-11T03:38:25;-6.20;49.60
12847;DHT22;6492;48.128;8.320;2022-12-11T03:42:28;-6.30;49.00
12847;DHT22;6492;48.128;8.320;2022-12-11T03:46:35;-6.40;48.90
12847;DHT22;6492;48.128;8.320;2022-12-11T03:50:40;-6.50;48.50
12847;DHT22;6492;48.128;8.320;2022-12-11T03:54:45;-6.70;48.60
12847;DHT22;6492;48.128;8.320;2022-12-11T03:58:48;-6.80;48.80
12847;DHT22;6492;48.128;8.320;2022-12-11T04:02:50;-6.90;49.10
12847;DHT22;6492;48.128;8.320;2022-12-11T04:07:07;-7.00;49.00
12847;DHT22;6492;48.128;8.320;2022-12-11T04:11:09;-7.10;49.40
12847;DHT22;6492;48.128;8.320;2022-12-11T04:15:28;-7.20;49.70
12847;DHT22;6492;48.128;8.320;2022-12-11T04:19:30;-7.30;50.40
12847;DHT22;6492;48.128;8.320;2022-12-11T04:23:57;-7.30;50.30
12847;DHT22;6492;48.128;8.320;2022-12-11T04:28:17;-7.50;49.90
12847;DHT22;6492;48.128;8.320;2022-12-11T04:32:19;-7.70;50.10
12847;DHT22;6492;48.128;8.320;2022-12-11T04:41:23;-7.90;51.20
12847;DHT22;6492;48.128;8.320;2022-12-11T04:49:44;-8.00;52.50
12847;DHT22;6492;48.128;8.320;2022-12-11T04:53:46;-8.00;53.20
12847;DHT22;6492;48.128;8.320;2022-12-11T04:57:49;-8.00;53.70
12847;DHT22;6492;48.128;8.320;2022-12-11T05:06:02;-7.50;55.10
12847;DHT22;6492;48.128;8.320;2022-12-11T05:14:15;-7.50;57.70
12847;DHT22;6492;48.128;8.320;2022-12-11T05:18:17;-7.30;58.10
12847;DHT22;6492;48.128;8.320;2022-12-11T05:22:19;-7.20;57.80
12847;DHT22;6492;48.128;8.320;2022-12-11T05:26:21;-7.10;57.40
12847;DHT22;6492;48.128;8.320;2022-12-11T05:30:24;-7.00;57.20
12847;DHT22;6492;48.128;8.320;2022-12-11T05:34:26;-7.00;57.20
12847;DHT22;6492;48.128;8.320;2022-12-11T05:38:28;-6.90;56.70
12847;DHT22;6492;48.128;8.320;2022-12-11T05:42:30;-7.10;55.60
12847;DHT22;6492;48.128;8.320;2022-12-11T05:46:33;-7.20;54.90
12847;DHT22;6492;48.128;8.320;2022-12-11T05:50:35;-7.30;54.90
12847;DHT22;6492;48.128;8.320;2022-12-11T05:54:37;-7.40;55.00
12847;DHT22;6492;48.128;8.320;2022-12-11T05:58:39;-7.60;54.40
12847;DHT22;6492;48.128;8.320;2022-12-11T06:02:44;-7.80;53.80
12847;DHT22;6492;48.128;8.320;2022-12-11T06:12:05;-7.80;54.70
12847;DHT22;6492;48.128;8.320;2022-12-11T07:01:54;-9.10;52.60
12847;DHT22;6492;48.128;8.320;2022-12-11T08:01:37;-8.40;56.30
12847;DHT22;6492;48.128;8.320;2022-12-11T08:05:47;-8.30;56.10
12847;DHT22;6492;48.128;8.320;2022-12-11T08:10:04;-8.10;56.10
12847;DHT22;6492;48.128;8.320;2022-12-11T08:14:06;-8.00;56.50
12847;DHT22;6492;48.128;8.320;2022-12-11T08:18:23;-7.90;56.20
12847;DHT22;6492;48.128;8.320;2022-12-11T08:22:42;-7.80;55.90
12847;DHT22;6492;48.128;8.320;2022-12-11T08:26:43;-7.70;55.80
12847;DHT22;6492;48.128;8.320;2022-12-11T08:30:45;-7.70;55.60
12847;DHT22;6492;48.128;8.320;2022-12-11T08:34:50;-7.60;55.70
12847;DHT22;6492;48.128;8.320;2022-12-11T08:38:53;-7.50;55.70
12847;DHT22;6492;48.128;8.320;2022-12-11T08:42:55;-7.50;55.60
12847;DHT22;6492;48.128;8.320;2022-12-11T08:46:56;-7.50;55.50
12847;DHT22;6492;48.128;8.320;2022-12-11T08:51:01;-7.40;55.60
12847;DHT22;6492;48.128;8.320;2022-12-11T08:55:03;-7.30;55.90
12847;DHT22;6492;48.128;8.320;2022-12-11T08:59:24;-7.20;56.00
12847;DHT22;6492;48.128;8.320;2022-12-11T09:03:26;-7.00;56.20
12847;DHT22;6492;48.128;8.320;2022-12-11T09:12:01;-6.70;55.90
12847;DHT22;6492;48.128;8.320;2022-12-11T09:16:05;-6.50;55.50
12847;DHT22;6492;48.128;8.320;2022-12-11T09:20:09;-6.40;54.90
12847;DHT22;6492;48.128;8.320;2022-12-11T09:24:11;-6.20;54.20
12847;DHT22;6492;48.128;8.320;2022-12-11T09:28:15;-6.10;53.50
12847;DHT22;6492;48.128;8.320;2022-12-11T09:32:25;-6.00;53.10
12847;DHT22;6492;48.128;8.320;2022-12-11T09:36:28;-5.80;52.70
12847;DHT22;6492;48.128;8.320;2022-12-11T09:40:30;-5.70;52.30
12847;DHT22;6492;48.128;8.320;2022-12-11T09:44:50;-5.60;51.60
12847;DHT22;6492;48.128;8.320;2022-12-11T09:48:53;-5.40;51.30
12847;DHT22;6492;48.128;8.320;2022-12-11T09:53:04;-5.20;50.20
12847;DHT22;6492;48.128;8.320;2022-12-11T09:57:16;-5.00;49.00
12847;DHT22;6492;48.128;8.320;2022-12-11T10:01:24;-4.70;48.30
12847;DHT22;6492;48.128;8.320;2022-12-11T10:05:33;-4.40;46.90
12847;DHT22;6492;48.128;8.320;2022-12-11T10:09:43;-4.10;42.50
12847;DHT22;6492;48.128;8.320;2022-12-11T10:13:54;-3.90;39.40
12847;DHT22;6492;48.128;8.320;2022-12-11T10:18:04;-3.60;37.70
12847;DHT22;6492;48.128;8.320;2022-12-11T10:22:16;-3.30;35.30
12847;DHT22;6492;48.128;8.320;2022-12-11T10:26:20;-3.00;35.10
12847;DHT22;6492;48.128;8.320;2022-12-11T10:30:24;-2.80;31.00
12847;DHT22;6492;48.128;8.320;2022-12-11T10:34:33;-2.50;29.10
12847;DHT22;6492;48.128;8.320;2022-12-11T10:38:39;-2.30;27.30
12847;DHT22;6492;48.128;8.320;2022-12-11T10:42:51;-2.10;25.50
12847;DHT22;6492;48.128;8.320;2022-12-11T10:47:02;-1.80;24.50
12847;DHT22;6492;48.128;8.320;2022-12-11T10:51:07;-1.60;24.40
12847;DHT22;6492;48.128;8.320;2022-12-11T10:55:19;-1.40;24.10
12847;DHT22;6492;48.128;8.320;2022-12-11T10:59:23;-1.20;19.80
12847;DHT22;6492;48.128;8.320;2022-12-11T11:03:26;-1.10;18.60
12847;DHT22;6492;48.128;8.320;2022-12-11T11:07:30;-0.90;18.80
12847;DHT22;6492;48.128;8.320;2022-12-11T11:11:34;-0.80;17.10
12847;DHT22;6492;48.128;8.320;2022-12-11T11:15:37;-0.60;16.20
12847;DHT22;6492;48.128;8.320;2022-12-11T11:19:39;-0.30;16.40
12847;DHT22;6492;48.128;8.320;2022-12-11T11:23:43;-0.10;13.70
12847;DHT22;6492;48.128;8.320;2022-12-11T11:27:48;-0.10;8.90
12847;DHT22;6492;48.128;8.320;2022-12-11T11:31:53;0.10;10.20
12847;DHT22;6492;48.128;8.320;2022-12-11T11:35:56;0.10;7.50
12847;DHT22;6492;48.128;8.320;2022-12-11T11:40:04;0.40;9.40
12847;DHT22;6492;48.128;8.320;2022-12-11T11:44:12;0.70;8.60
12847;DHT22;6492;48.128;8.320;2022-12-11T11:48:26;0.50;5.40
12847;DHT22;6492;48.128;8.320;2022-12-11T11:52:35;0.70;7.10
12847;DHT22;6492;48.128;8.320;2022-12-11T11:56:39;0.80;6.40
12847;DHT22;6492;48.128;8.320;2022-12-11T12:00:41;1.10;7.70
12847;DHT22;6492;48.128;8.320;2022-12-11T12:04:45;1.50;7.00
12847;DHT22;6492;48.128;8.320;2022-12-11T12:08:53;1.40;4.70
12847;DHT22;6492;48.128;8.320;2022-12-11T12:13:00;1.40;6.00
12847;DHT22;6492;48.128;8.320;2022-12-11T12:17:11;1.10;5.50
12847;DHT22;6492;48.128;8.320;2022-12-11T12:21:25;1.10;6.60
12847;DHT22;6492;48.128;8.320;2022-12-11T12:25:34;1.00;3.70
12847;DHT22;6492;48.128;8.320;2022-12-11T12:29:46;1.30;6.40
12847;DHT22;6492;48.128;8.320;2022-12-11T12:34:09;2.00;7.60
12847;DHT22;6492;48.128;8.320;2022-12-11T12:38:19;2.30;4.70
12847;DHT22;6492;48.128;8.320;2022-12-11T12:42:29;2.40;4.20
12847;DHT22;6492;48.128;8.320;2022-12-11T12:46:48;2.40;5.10
12847;DHT22;6492;48.128;8.320;2022-12-11T12:50:52;2.30;2.40
12847;DHT22;6492;48.128;8.320;2022-12-11T12:54:57;1.80;5.00
12847;DHT22;6492;48.128;8.320;2022-12-11T12:59:20;1.10;5.00
12847;DHT22;6492;48.128;8.320;2022-12-11T13:03:25;0.50;6.30
12847;DHT22;6492;48.128;8.320;2022-12-11T13:07:30;0.20;8.30
12847;DHT22;6492;48.128;8.320;2022-12-11T13:11:33;-0.10;8.90
12847;DHT22;6492;48.128;8.320;2022-12-11T13:15:45;-0.40;10.00
12847;DHT22;6492;48.128;8.320;2022-12-11T13:19:49;-0.70;10.10
12847;DHT22;6492;48.128;8.320;2022-12-11T13:24:13;-1.20;10.70
12847;DHT22;6492;48.128;8.320;2022-12-11T13:28:23;-1.40;12.80
12847;DHT22;6492;48.128;8.320;2022-12-11T13:32:29;-1.50;13.00
12847;DHT22;6492;48.128;8.320;2022-12-11T13:36:34;-1.50;13.60
12847;DHT22;6492;48.128;8.320;2022-12-11T13:40:38;-1.60;13.30
12847;DHT22;6492;48.128;8.320;2022-12-11T13:44:41;-1.70;13.90
12847;DHT22;6492;48.128;8.320;2022-12-11T13:48:50;-1.70;13.70
12847;DHT22;6492;48.128;8.320;2022-12-11T13:52:57;-1.80;13.40
12847;DHT22;6492;48.128;8.320;2022-12-11T13:57:02;-1.80;13.40
12847;DHT22;6492;48.128;8.320;2022-12-11T14:01:08;-1.90;13.60
12847;DHT22;6492;48.128;8.320;2022-12-11T14:05:11;-2.00;14.10
12847;DHT22;6492;48.128;8.320;2022-12-11T14:09:18;-2.00;13.40
12847;DHT22;6492;48.128;8.320;2022-12-11T14:13:24;-2.00;13.80
12847;DHT22;6492;48.128;8.320;2022-12-11T14:17:29;-2.00;14.60
12847;DHT22;6492;48.128;8.320;2022-12-11T14:21:31;-2.00;14.70
12847;DHT22;6492;48.128;8.320;2022-12-11T14:25:35;-2.10;14.10
12847;DHT22;6492;48.128;8.320;2022-12-11T14:29:37;-2.20;14.20
12847;DHT22;6492;48.128;8.320;2022-12-11T14:33:50;-2.10;14.70
12847;DHT22;6492;48.128;8.320;2022-12-11T14:37:53;-2.20;14.40
12847;DHT22;6492;48.128;8.320;2022-12-11T14:42:00;-2.30;13.40
12847;DHT22;6492;48.128;8.320;2022-12-11T14:46:07;-2.40;13.70
12847;DHT22;6492;48.128;8.320;2022-12-11T14:50:17;-2.50;14.30
12847;DHT22;6492;48.128;8.320;2022-12-11T14:54:26;-2.60;14.70
12847;DHT22;6492;48.128;8.320;2022-12-11T14:58:32;-2.80;15.90
12847;DHT22;6492;48.128;8.320;2022-12-11T15:02:38;-3.00;16.90
12847;DHT22;6492;48.128;8.320;2022-12-11T15:06:49;-3.10;18.30
12847;DHT22;6492;48.128;8.320;2022-12-11T15:11:00;-3.30;19.70
12847;DHT22;6492;48.128;8.320;2022-12-11T15:15:05;-3.40;21.30
12847;DHT22;6492;48.128;8.320;2022-12-11T15:19:17;-3.60;22.50
12847;DHT22;6492;48.128;8.320;2022-12-11T15:23:37;-3.70;24.30
12847;DHT22;6492;48.128;8.320;2022-12-11T15:27:40;-3.80;25.50
12847;DHT22;6492;48.128;8.320;2022-12-11T15:31:44;-3.90;26.50
12847;DHT22;6492;48.128;8.320;2022-12-11T15:35:57;-4.00;28.20
12847;DHT22;6492;48.128;8.320;2022-12-11T15:40:01;-4.10;29.50
12847;DHT22;6492;48.128;8.320;2022-12-11T15:44:03;-4.20;29.80
12847;DHT22;6492;48.128;8.320;2022-12-11T15:48:07;-4.30;30.00
12847;DHT22;6492;48.128;8.320;2022-12-11T15:52:11;-4.50;30.00
12847;DHT22;6492;48.128;8.320;2022-12-11T15:56:15;-4.70;30.20
12847;DHT22;6492;48.128;8.320;2022-12-11T16:00:47;-4.90;31.10
12847;DHT22;6492;48.128;8.320;2022-12-11T16:05:03;-5.20;31.10
12847;DHT22;6492;48.128;8.320;2022-12-11T16:09:05;-5.40;32.00
12847;DHT22;6492;48.128;8.320;2022-12-11T16:13:07;-5.60;32.70
12847;DHT22;6492;48.128;8.320;2022-12-11T16:17:22;-5.80;34.20
12847;DHT22;6492;48.128;8.320;2022-12-11T16:21:26;-6.00;35.40
12847;DHT22;6492;48.128;8.320;2022-12-11T16:25:31;-6.20;36.40
12847;DHT22;6492;48.128;8.320;2022-12-11T16:29:49;-6.40;37.20
12847;DHT22;6492;48.128;8.320;2022-12-11T16:33:51;-6.50;38.30
12847;DHT22;6492;48.128;8.320;2022-12-11T16:38:20;-6.60;39.30
12847;DHT22;6492;48.128;8.320;2022-12-11T16:42:46;-6.80;40.40
12847;DHT22;6492;48.128;8.320;2022-12-11T16:46:49;-6.80;42.80
12847;DHT22;6492;48.128;8.320;2022-12-11T16:51:25;-6.90;43.90
12847;DHT22;6492;48.128;8.320;2022-12-11T16:55:28;-7.00;43.60
12847;DHT22;6492;48.128;8.320;2022-12-11T16:59:30;-7.10;44.20
12847;DHT22;6492;48.128;8.320;2022-12-11T17:03:35;-7.20;44.20
12847;DHT22;6492;48.128;8.320;2022-12-11T17:07:37;-7.30;43.80
12847;DHT22;6492;48.128;8.320;2022-12-11T17:16:54;-7.30;45.00
12847;DHT22;6492;48.128;8.320;2022-12-11T17:21:12;-7.40;46.20
12847;DHT22;6492;48.128;8.320;2022-12-11T17:25:14;-7.40;46.50
12847;DHT22;6492;48.128;8.320;2022-12-11T17:29:23;-7.60;46.30
12847;DHT22;6492;48.128;8.320;2022-12-11T18:26:35;-9.00;49.90
12847;DHT22;6492;48.128;8.320;2022-12-11T19:16:35;-9.70;51.90
12847;DHT22;6492;48.128;8.320;2022-12-11T19:20:55;-10.10;51.90
12847;DHT22;6492;48.128;8.320;2022-12-11T19:25:16;-9.30;52.70
12847;DHT22;6492;48.128;8.320;2022-12-11T19:29:20;-9.80;54.10
12847;DHT22;6492;48.128;8.320;2022-12-11T20:52:41;-9.90;54.10
12847;DHT22;6492;48.128;8.320;2022-12-11T21:05:05;-10.20;53.60
12847;DHT22;6492;48.128;8.320;2022-12-11T21:09:12;-10.20;54.70
12847;DHT22;6492;48.128;8.320;2022-12-11T21:13:14;-9.90;56.40
12847;DHT22;6492;48.128;8.320;2022-12-11T21:17:51;-10.50;56.90
12847;DHT22;6492;48.128;8.320;2022-12-11T21:21:54;-9.70;57.00
12847;DHT22;6492;48.128;8.320;2022-12-11T21:25:58;-9.70;56.80
12847;DHT22;6492;48.128;8.320;2022-12-11T21:30:00;-9.80;56.80
12847;DHT22;6492;48.128;8.320;2022-12-11T21:34:14;-9.70;57.50
12847;DHT22;6492;48.128;8.320;2022-12-11T21:38:24;-9.50;58.40
12847;DHT22;6492;48.128;8.320;2022-12-11T21:47:34;-9.50;56.90
12847;DHT22;6492;48.128;8.320;2022-12-11T21:51:38;-9.60;58.00
12847;DHT22;6492;48.128;8.320;2022-12-11T21:55:41;-9.50;59.70
12847;DHT22;6492;48.128;8.320;2022-12-11T21:59:44;-9.40;58.70
12847;DHT22;6492;48.128;8.320;2022-12-11T22:03:49;-9.60;56.50
12847;DHT22;6492;48.128;8.320;2022-12-11T22:07:52;-9.30;56.50
12847;DHT22;6492;48.128;8.320;2022-12-11T22:11:54;-10.10;56.10
12847;DHT22;6492;48.128;8.320;2022-12-11T22:16:28;-10.10;56.70
12847;DHT22;6492;48.128;8.320;2022-12-11T22:20:32;-9.90;56.90
12847;DHT22;6492;48.128;8.320;2022-12-11T22:24:34;-10.00;57.70
12847;DHT22;6492;48.128;8.320;2022-12-11T22:28:36;-10.00;57.90
12847;DHT22;6492;48.128;8.320;2022-12-11T22:32:38;-9.20;58.40
12847;DHT22;6492;48.128;8.320;2022-12-11T22:36:41;-9.90;58.60
12847;DHT22;6492;48.128;8.320;2022-12-11T22:40:43;-10.00;57.80
12847;DHT22;6492;48.128;8.320;2022-12-11T22:44:45;-10.00;57.50
12847;DHT22;6492;48.128;8.320;2022-12-11T22:48:47;-9.40;57.40
12847;DHT22;6492;48.128;8.320;2022-12-11T22:52:50;-10.20;57.40
12847;DHT22;6492;48.128;8.320;2022-12-11T23:02:38;-9.80;58.60
12847;DHT22;6492;48.128;8.320;2022-12-11T23:41:26;-10.40;54.90
12847;DHT22;6492;48.128;8.320;2022-12-11T23:51:06;-10.60;54.70
